createdAt,value
2022-09-30T00:00:29.786Z,20.14
2022-09-30T00:03:56.851Z,19.82
2022-09-30T00:07:20.787Z,19.79
2022-09-30T00:10:44.855Z,19.65
2022-09-30T00:14:10.790Z,20.22
2022-09-30T00:17:35.854Z,20.61
2022-09-30T00:21:00.828Z,21.16
2022-09-30T00:24:24.870Z,21.32
2022-09-30T00:27:48.879Z,21.20
2022-09-30T00:31:11.458Z,21.06
2022-09-30T00:34:28.827Z,20.49
2022-09-30T00:37:53.856Z,20.01
2022-09-30T00:41:18.879Z,19.73
2022-09-30T00:45:10.857Z,20.08
2022-09-30T00:48:37.867Z,19.71
2022-09-30T00:52:07.819Z,19.92
2022-09-30T00:56:00.877Z,19.68
2022-09-30T00:59:30.857Z,19.56
2022-09-30T01:02:54.866Z,20.02
2022-09-30T01:06:18.817Z,20.38
2022-09-30T01:09:44.951Z,20.51
2022-09-30T01:13:08.865Z,20.12
2022-09-30T01:16:52.965Z,20.01
2022-09-30T01:20:34.863Z,19.92
2022-09-30T01:24:15.901Z,19.94
2022-09-30T01:27:55.452Z,19.87
2022-09-30T01:31:23.917Z,19.67
2022-09-30T01:34:54.907Z,19.48
2022-09-30T01:39:08.909Z,19.28
2022-09-30T01:42:52.887Z,19.50
2022-09-30T01:46:51.960Z,19.40
2022-09-30T01:50:55.934Z,19.35
2022-09-30T01:54:33.876Z,19.54
2022-09-30T01:58:15.946Z,19.84
2022-09-30T02:01:55.014Z,19.86
2022-09-30T02:05:29.903Z,19.60
2022-09-30T02:09:21.141Z,19.68
2022-09-30T02:12:48.959Z,19.07
2022-09-30T02:16:23.989Z,19.18
2022-09-30T02:19:51.913Z,19.29
2022-09-30T02:23:25.984Z,18.87
2022-09-30T02:26:55.970Z,18.83
2022-09-30T02:30:19.923Z,18.92
2022-09-30T02:34:18.908Z,19.22
2022-09-30T02:37:43.000Z,19.10
2022-09-30T02:41:29.941Z,18.99
2022-09-30T02:44:53.898Z,19.40
2022-09-30T02:48:39.931Z,19.18
2022-09-30T02:52:35.928Z,18.92
2022-09-30T02:56:19.875Z,18.84
2022-09-30T02:59:43.881Z,18.78
2022-09-30T03:03:13.941Z,18.94
2022-09-30T03:06:38.897Z,19.10
2022-09-30T03:10:02.909Z,19.05
2022-09-30T03:14:01.906Z,19.03
2022-09-30T03:17:44.863Z,18.82
2022-09-30T03:21:23.910Z,18.93
2022-09-30T03:25:21.871Z,18.64
2022-09-30T03:28:53.920Z,18.33
2022-09-30T03:32:38.897Z,18.58
2022-09-30T03:36:13.974Z,18.73
2022-09-30T03:39:51.965Z,18.60
2022-09-30T03:43:33.975Z,18.57
2022-09-30T03:47:04.989Z,18.63
2022-09-30T03:50:33.029Z,18.62
2022-09-30T03:53:58.995Z,18.50
2022-09-30T03:57:22.928Z,18.62
2022-09-30T04:00:47.052Z,18.33
2022-09-30T04:04:11.952Z,18.39
2022-09-30T04:07:36.010Z,18.36
2022-09-30T04:11:00.987Z,18.67
2022-09-30T04:14:25.030Z,18.60
2022-09-30T04:17:50.052Z,18.56
2022-09-30T04:21:13.981Z,18.35
2022-09-30T04:24:38.996Z,18.33
2022-09-30T04:28:02.949Z,18.27
2022-09-30T04:31:28.997Z,18.33
2022-09-30T04:34:46.548Z,18.29
2022-09-30T04:38:05.988Z,18.43
2022-09-30T04:41:32.966Z,18.51
2022-09-30T04:44:56.949Z,18.32
2022-09-30T04:48:20.916Z,18.40
2022-09-30T04:51:48.870Z,18.52
2022-09-30T04:55:12.919Z,18.56
2022-09-30T04:58:37.218Z,18.45
2022-09-30T05:02:01.036Z,18.44
2022-09-30T05:05:25.964Z,18.51
2022-09-30T05:08:52.986Z,18.47
2022-09-30T05:12:16.054Z,18.66
2022-09-30T05:15:39.946Z,18.58
2022-09-30T05:19:02.983Z,18.48
2022-09-30T05:22:27.000Z,18.37
2022-09-30T05:25:50.932Z,18.51
2022-09-30T05:29:14.975Z,18.38
2022-09-30T05:32:40.000Z,18.38
2022-09-30T05:36:05.114Z,18.17
2022-09-30T05:39:28.936Z,18.29
2022-09-30T05:42:55.017Z,18.27
2022-09-30T05:46:20.043Z,18.20
2022-09-30T05:49:43.988Z,18.22
2022-09-30T05:53:07.992Z,18.22
2022-09-30T05:56:32.013Z,18.13
2022-09-30T05:59:55.974Z,18.03
2022-09-30T06:03:29.005Z,18.01
2022-09-30T06:06:52.979Z,17.94
2022-09-30T06:10:19.995Z,17.92
2022-09-30T06:13:45.013Z,17.96
2022-09-30T06:17:08.966Z,17.82
2022-09-30T06:20:33.044Z,17.88
2022-09-30T06:23:56.979Z,17.80
2022-09-30T06:27:21.084Z,17.78
2022-09-30T06:30:45.006Z,17.77
2022-09-30T06:34:10.035Z,17.77
2022-09-30T06:37:33.963Z,17.77
2022-09-30T06:40:59.038Z,17.76
2022-09-30T06:44:23.063Z,17.74
2022-09-30T06:47:58.046Z,17.74
2022-09-30T06:51:24.959Z,17.68
2022-09-30T06:54:52.067Z,17.60
2022-09-30T06:58:18.017Z,17.62
2022-09-30T07:01:41.046Z,17.62
2022-09-30T07:05:06.007Z,17.62
2022-09-30T07:08:31.008Z,17.51
2022-09-30T07:11:56.967Z,17.53
2022-09-30T07:15:21.022Z,17.51
2022-09-30T07:18:46.018Z,17.48
2022-09-30T07:22:30.057Z,17.48
2022-09-30T07:25:55.021Z,17.49
2022-09-30T07:29:19.057Z,17.47
2022-09-30T07:32:42.966Z,17.49
2022-09-30T07:36:16.115Z,17.54
2022-09-30T07:39:40.966Z,17.53
2022-09-30T07:43:06.066Z,17.53
2022-09-30T07:46:37.029Z,17.57
2022-09-30T07:50:01.061Z,17.52
2022-09-30T07:53:25.100Z,16.52
2022-09-30T07:57:09.119Z,16.07
2022-09-30T08:00:42.923Z,15.70
2022-09-30T08:04:10.022Z,15.33
2022-09-30T08:07:34.088Z,15.15
2022-09-30T08:10:58.035Z,15.10
2022-09-30T08:14:22.107Z,14.90
2022-09-30T08:17:45.992Z,14.78
2022-09-30T08:21:10.088Z,14.75
2022-09-30T08:24:34.087Z,14.62
2022-09-30T08:27:58.008Z,14.49
2022-09-30T08:31:38.086Z,14.45
2022-09-30T08:34:54.607Z,14.29
2022-09-30T08:38:12.085Z,14.34
2022-09-30T08:41:51.039Z,14.26
2022-09-30T08:45:31.224Z,14.16
2022-09-30T08:49:10.050Z,14.25
2022-09-30T08:52:49.021Z,14.25
2022-09-30T08:56:14.061Z,14.18
2022-09-30T08:59:48.105Z,14.25
2022-09-30T09:03:17.053Z,14.29
2022-09-30T09:06:53.070Z,14.32
2022-09-30T09:10:41.098Z,14.19
2022-09-30T09:14:17.089Z,14.14
2022-09-30T09:17:47.073Z,14.20
2022-09-30T09:21:59.058Z,14.21
2022-09-30T09:25:35.062Z,14.05
2022-09-30T09:29:26.103Z,14.00
2022-09-30T09:32:50.036Z,14.02
2022-09-30T09:36:14.056Z,14.04
2022-09-30T09:39:57.019Z,14.04
2022-09-30T09:43:38.055Z,14.00
2022-09-30T09:47:01.089Z,14.01
2022-09-30T09:50:34.136Z,13.91
2022-09-30T09:54:07.079Z,13.87
2022-09-30T09:57:39.105Z,13.89
2022-09-30T10:01:06.336Z,13.83
2022-09-30T10:04:35.133Z,13.84
2022-09-30T10:07:59.064Z,13.89
2022-09-30T10:11:37.051Z,13.94
2022-09-30T10:15:16.063Z,13.92
2022-09-30T10:18:51.072Z,13.93
2022-09-30T10:22:25.081Z,13.97
2022-09-30T10:25:49.092Z,13.87
2022-09-30T10:29:15.062Z,13.85
2022-09-30T10:32:39.127Z,13.65
2022-09-30T10:36:21.769Z,13.82
2022-09-30T10:39:43.131Z,13.78
2022-09-30T10:43:06.096Z,13.69
2022-09-30T10:46:47.095Z,13.64
2022-09-30T10:50:24.148Z,13.56
2022-09-30T10:53:50.106Z,13.53
2022-09-30T10:57:17.148Z,13.50
2022-09-30T11:00:43.197Z,13.45
2022-09-30T11:04:25.114Z,13.46
2022-09-30T11:08:13.130Z,13.39
2022-09-30T11:11:41.115Z,13.29
2022-09-30T11:15:22.160Z,13.34
2022-09-30T11:19:11.058Z,13.26
2022-09-30T11:22:48.155Z,13.26
2022-09-30T11:26:23.066Z,13.21
2022-09-30T11:29:59.097Z,13.21
2022-09-30T11:33:29.109Z,13.18
2022-09-30T11:37:34.149Z,13.15
2022-09-30T11:41:10.102Z,13.16
2022-09-30T11:44:54.111Z,13.16
2022-09-30T11:48:54.130Z,13.13
2022-09-30T11:52:40.141Z,13.07
2022-09-30T11:56:26.359Z,13.11
2022-09-30T12:00:09.120Z,12.99
2022-09-30T12:03:42.138Z,12.98
2022-09-30T12:07:36.126Z,13.05
2022-09-30T12:11:12.091Z,12.96
2022-09-30T12:14:45.136Z,12.98
2022-09-30T12:18:29.097Z,12.90
2022-09-30T12:22:50.169Z,12.91
2022-09-30T12:26:16.119Z,12.83
2022-09-30T12:30:11.223Z,12.82
2022-09-30T12:34:00.107Z,12.85
2022-09-30T12:37:48.127Z,12.84
2022-09-30T12:41:32.148Z,12.81
2022-09-30T12:45:31.171Z,12.83
2022-09-30T12:49:07.142Z,12.70
2022-09-30T12:52:36.129Z,12.71
2022-09-30T12:56:00.131Z,12.72
2022-09-30T12:59:24.124Z,12.75
2022-09-30T13:02:57.131Z,12.68
2022-09-30T13:06:21.068Z,12.70
2022-09-30T13:09:53.146Z,12.64
2022-09-30T13:13:40.162Z,12.69
2022-09-30T13:17:21.179Z,12.67
2022-09-30T13:21:22.194Z,12.60
2022-09-30T13:25:28.135Z,12.61
2022-09-30T13:28:54.153Z,12.58
2022-09-30T13:32:21.172Z,12.56
2022-09-30T13:36:14.148Z,12.56
2022-09-30T13:39:37.746Z,12.59
2022-09-30T13:43:02.200Z,12.54
2022-09-30T13:46:29.347Z,12.58
2022-09-30T13:50:08.157Z,12.59
2022-09-30T13:53:54.153Z,12.55
2022-09-30T13:57:19.196Z,12.51
2022-09-30T14:00:56.203Z,12.50
2022-09-30T14:04:58.189Z,12.50
2022-09-30T14:08:44.121Z,12.51
2022-09-30T14:12:41.174Z,12.47
2022-09-30T14:16:14.193Z,12.47
2022-09-30T14:19:50.208Z,12.57
2022-09-30T14:23:14.161Z,12.51
2022-09-30T14:26:50.177Z,12.52
2022-09-30T14:30:18.204Z,12.53
2022-09-30T14:33:42.153Z,12.48
2022-09-30T14:37:08.182Z,12.48
2022-09-30T14:40:44.195Z,12.48
2022-09-30T14:44:16.162Z,12.53
2022-09-30T14:47:40.183Z,12.53
2022-09-30T14:51:15.212Z,12.54
2022-09-30T14:54:41.170Z,12.53
2022-09-30T14:58:06.233Z,12.54
2022-09-30T15:01:34.257Z,12.56
2022-09-30T15:05:07.216Z,12.53
2022-09-30T15:08:36.191Z,12.50
2022-09-30T15:11:59.183Z,12.49
2022-09-30T15:15:43.145Z,12.39
2022-09-30T15:19:07.315Z,12.48
2022-09-30T15:22:32.184Z,12.48
2022-09-30T15:25:56.236Z,12.46
2022-09-30T15:29:21.187Z,12.44
2022-09-30T15:32:51.326Z,12.40
2022-09-30T15:36:42.224Z,12.39
2022-09-30T15:40:25.232Z,12.35
2022-09-30T15:43:53.340Z,12.41
2022-09-30T15:47:13.250Z,12.37
2022-09-30T15:51:04.215Z,12.38
2022-09-30T15:54:51.233Z,12.40
2022-09-30T15:58:15.165Z,12.38
2022-09-30T16:01:47.210Z,12.37
2022-09-30T16:05:11.163Z,12.38
2022-09-30T16:08:41.273Z,12.38
2022-09-30T16:12:13.175Z,12.39
2022-09-30T16:15:38.223Z,12.38
2022-09-30T16:19:03.204Z,12.36
2022-09-30T16:22:57.198Z,12.35
2022-09-30T16:26:36.244Z,12.32
2022-09-30T16:30:01.197Z,12.32
2022-09-30T16:33:27.218Z,12.35
2022-09-30T16:36:52.234Z,12.35
2022-09-30T16:40:24.297Z,12.33
2022-09-30T16:43:48.228Z,12.34
2022-09-30T16:47:12.304Z,12.35
2022-09-30T16:50:55.235Z,12.35
2022-09-30T16:54:19.293Z,12.34
2022-09-30T16:57:43.200Z,12.34
2022-09-30T17:01:08.321Z,12.35
2022-09-30T17:04:32.204Z,12.36
2022-09-30T17:07:58.232Z,12.39
2022-09-30T17:11:23.233Z,12.39
2022-09-30T17:14:47.284Z,12.37
2022-09-30T17:18:12.226Z,12.36
2022-09-30T17:21:37.275Z,12.35
2022-09-30T17:25:01.283Z,12.38
2022-09-30T17:28:26.255Z,12.38
2022-09-30T17:31:50.239Z,12.34
2022-09-30T17:35:16.209Z,12.38
2022-09-30T17:38:40.272Z,12.39
2022-09-30T17:42:22.238Z,12.40
2022-09-30T17:45:46.323Z,12.44
2022-09-30T17:49:10.291Z,12.37
2022-09-30T17:52:35.229Z,12.34
2022-09-30T17:56:00.290Z,12.25
2022-09-30T17:59:27.261Z,12.28
2022-09-30T18:02:52.221Z,12.30
2022-09-30T18:06:15.330Z,12.33
2022-09-30T18:09:39.220Z,12.33
2022-09-30T18:13:03.296Z,12.34
2022-09-30T18:16:27.329Z,12.37
2022-09-30T18:19:51.268Z,12.35
2022-09-30T18:23:15.227Z,12.33
2022-09-30T18:26:40.277Z,12.38
2022-09-30T18:30:04.232Z,12.40
2022-09-30T18:33:30.272Z,12.46
2022-09-30T18:36:54.273Z,12.45
2022-09-30T18:40:19.437Z,12.41
2022-09-30T18:43:44.269Z,12.46
2022-09-30T18:47:09.268Z,12.54
2022-09-30T18:50:26.837Z,12.47
2022-09-30T18:53:45.258Z,12.59
2022-09-30T18:57:09.265Z,12.65
2022-09-30T19:00:35.372Z,12.61
2022-09-30T19:04:00.334Z,12.60
2022-09-30T19:07:25.352Z,12.69
2022-09-30T19:10:50.325Z,12.65
2022-09-30T19:14:15.241Z,12.72
2022-09-30T19:17:41.335Z,12.84
2022-09-30T19:21:05.325Z,12.78
2022-09-30T19:24:29.266Z,12.74
2022-09-30T19:27:54.320Z,12.71
2022-09-30T19:31:29.457Z,12.77
2022-09-30T19:35:03.916Z,12.76
2022-09-30T19:38:37.078Z,12.87
2022-09-30T19:42:04.071Z,12.87
2022-09-30T19:45:32.381Z,12.83
2022-09-30T19:48:50.053Z,12.86
2022-09-30T19:52:17.869Z,12.93
2022-09-30T19:55:50.557Z,12.89
2022-09-30T19:59:16.340Z,13.00
2022-09-30T20:02:40.349Z,12.91
2022-09-30T20:06:04.270Z,12.96
2022-09-30T20:09:29.314Z,12.97
2022-09-30T20:12:53.329Z,13.07
2022-09-30T20:16:22.363Z,13.14
2022-09-30T20:19:46.345Z,13.12
2022-09-30T20:23:09.294Z,13.24
2022-09-30T20:26:34.340Z,13.24
2022-09-30T20:29:58.330Z,13.30
2022-09-30T20:33:22.334Z,13.46
2022-09-30T20:36:48.278Z,13.58
2022-09-30T20:40:12.299Z,13.70
2022-09-30T20:43:38.331Z,13.75
2022-09-30T20:47:02.288Z,13.86
2022-09-30T20:50:36.190Z,14.06
2022-09-30T20:54:04.301Z,14.00
2022-09-30T20:57:27.334Z,13.86
2022-09-30T21:00:53.403Z,13.87
2022-09-30T21:04:17.323Z,13.90
2022-09-30T21:07:42.360Z,13.91
2022-09-30T21:11:08.290Z,13.96
2022-09-30T21:14:32.365Z,13.85
2022-09-30T21:17:56.287Z,13.88
2022-09-30T21:21:21.378Z,14.01
2022-09-30T21:24:45.350Z,13.93
2022-09-30T21:28:09.402Z,14.05
2022-09-30T21:31:38.349Z,13.95
2022-09-30T21:35:02.392Z,13.82
2022-09-30T21:38:26.285Z,14.03
2022-09-30T21:41:51.332Z,14.06
2022-09-30T21:45:16.367Z,14.05
2022-09-30T21:48:43.368Z,14.18
2022-09-30T21:52:01.880Z,14.27
2022-09-30T21:55:20.336Z,14.44
2022-09-30T21:58:46.332Z,14.38
2022-09-30T22:02:09.378Z,14.58
2022-09-30T22:05:34.347Z,14.71
2022-09-30T22:08:58.345Z,15.03
2022-09-30T22:12:23.311Z,15.26
2022-09-30T22:15:47.347Z,15.21
2022-09-30T22:19:12.329Z,15.19
2022-09-30T22:22:29.370Z,15.35
2022-09-30T22:25:53.400Z,15.22
2022-09-30T22:29:19.326Z,15.21
2022-09-30T22:32:43.356Z,15.27
2022-09-30T22:36:28.391Z,15.31
2022-09-30T22:39:53.192Z,15.30
2022-09-30T22:43:21.352Z,15.55
2022-09-30T22:46:47.394Z,15.54
2022-09-30T22:50:11.325Z,15.38
2022-09-30T22:53:35.415Z,15.47
2022-09-30T22:56:59.503Z,15.51
2022-09-30T23:00:23.406Z,15.78
2022-09-30T23:03:47.344Z,15.84
2022-09-30T23:07:13.401Z,15.76
2022-09-30T23:10:37.375Z,15.89
2022-09-30T23:14:01.355Z,15.95
2022-09-30T23:17:25.349Z,16.17
2022-09-30T23:20:49.372Z,16.17
2022-09-30T23:24:13.399Z,16.05
2022-09-30T23:27:37.373Z,16.12
2022-09-30T23:31:02.422Z,16.30
2022-09-30T23:34:26.376Z,16.09
2022-09-30T23:37:50.399Z,16.16
2022-09-30T23:41:15.453Z,16.27
2022-09-30T23:44:39.398Z,16.19
2022-09-30T23:48:05.427Z,16.39
2022-09-30T23:51:31.590Z,16.50
2022-09-30T23:54:49.929Z,16.38
2022-09-30T23:58:16.439Z,16.45
